sensor_id;sensor_type;location;lat;lon;timestamp;pressure;altitude;pressure_sealevel;temperature;humidity
54588;BME280;40484;50.198;19.576;2023-05-09T07:05:50;102599.41;;;13.60;42.69
54588;BME280;40484;50.198;19.576;2023-05-09T07:10:52;102592.41;;;13.95;42.96
54588;BME280;40484;50.198;19.576;2023-05-09T07:15:53;102592.38;;;13.80;41.66
54588;BME280;40484;50.198;19.576;2023-05-09T07:20:55;102588.13;;;14.04;41.35
54588;BME280;40484;50.198;19.576;2023-05-09T07:25:57;102583.58;;;14.08;41.58
54588;BME280;40484;50.198;19.576;2023-05-09T07:30:59;102580.42;;;14.39;41.18
54588;BME280;40484;50.198;19.576;2023-05-09T07:36:00;102568.23;;;14.51;40.54
54588;BME280;40484;50.198;19.576;2023-05-09T07:41:02;102572.78;;;14.46;40.62
54588;BME280;40484;50.198;19.576;2023-05-09T07:46:03;102562.91;;;14.45;40.61
54588;BME280;40484;50.198;19.576;2023-05-09T07:51:05;102570.97;;;14.35;40.38
54588;BME280;40484;50.198;19.576;2023-05-09T07:56:06;102573.42;;;13.99;41.44
54588;BME280;40484;50.198;19.576;2023-05-09T08:01:08;102570.80;;;14.54;41.23
54588;BME280;40484;50.198;19.576;2023-05-09T08:06:09;102565.64;;;14.44;41.01
54588;BME280;40484;50.198;19.576;2023-05-09T08:11:11;102556.34;;;14.21;41.67
54588;BME280;40484;50.198;19.576;2023-05-09T08:16:12;102564.98;;;14.56;41.19
54588;BME280;40484;50.198;19.576;2023-05-09T08:21:14;102564.47;;;14.87;41.26
54588;BME280;40484;50.198;19.576;2023-05-09T08:26:15;102546.98;;;14.80;40.99
54588;BME280;40484;50.198;19.576;2023-05-09T08:31:17;102549.74;;;14.82;40.95
54588;BME280;40484;50.198;19.576;2023-05-09T08:36:18;102541.41;;;14.84;41.82
54588;BME280;40484;50.198;19.576;2023-05-09T08:41:23;102550.99;;;15.03;39.85
54588;BME280;40484;50.198;19.576;2023-05-09T08:46:27;102554.62;;;14.88;40.19
54588;BME280;40484;50.198;19.576;2023-05-09T08:51:51;102551.09;;;15.42;40.29
54588;BME280;40484;50.198;19.576;2023-05-09T08:56:53;102549.16;;;15.65;40.11
54588;BME280;40484;50.198;19.576;2023-05-09T09:01:55;102541.43;;;15.98;39.87
54588;BME280;40484;50.198;19.576;2023-05-09T09:06:58;102538.15;;;16.19;39.80
54588;BME280;40484;50.198;19.576;2023-05-09T09:11:59;102539.47;;;16.38;38.88
54588;BME280;40484;50.198;19.576;2023-05-09T09:17:02;102530.70;;;16.45;38.41
54588;BME280;40484;50.198;19.576;2023-05-09T09:22:05;102518.34;;;16.62;38.33
54588;BME280;40484;50.198;19.576;2023-05-09T09:27:07;102522.70;;;16.46;37.68
54588;BME280;40484;50.198;19.576;2023-05-09T09:32:09;102529.23;;;16.56;37.16
54588;BME280;40484;50.198;19.576;2023-05-09T09:37:20;102515.66;;;16.77;37.25
54588;BME280;40484;50.198;19.576;2023-05-09T09:42:14;102517.79;;;16.91;35.62
54588;BME280;40484;50.198;19.576;2023-05-09T09:47:15;102502.66;;;17.07;36.32
54588;BME280;40484;50.198;19.576;2023-05-09T09:52:23;102508.12;;;17.14;35.59
54588;BME280;40484;50.198;19.576;2023-05-09T09:57:38;102492.14;;;17.29;36.04
54588;BME280;40484;50.198;19.576;2023-05-09T10:02:54;102488.94;;;17.46;36.46
54588;BME280;40484;50.198;19.576;2023-05-09T10:08:20;102490.34;;;17.87;34.13
54588;BME280;40484;50.198;19.576;2023-05-09T10:13:21;102489.28;;;17.85;34.28
54588;BME280;40484;50.198;19.576;2023-05-09T10:18:25;102491.70;;;18.10;33.90
54588;BME280;40484;50.198;19.576;2023-05-09T10:23:28;102474.94;;;18.35;33.46
54588;BME280;40484;50.198;19.576;2023-05-09T10:28:31;102479.51;;;18.47;33.30
54588;BME280;40484;50.198;19.576;2023-05-09T10:33:40;102480.40;;;18.40;33.44
54588;BME280;40484;50.198;19.576;2023-05-09T10:38:40;102470.10;;;18.37;33.20
54588;BME280;40484;50.198;19.576;2023-05-09T10:43:43;102468.43;;;18.32;33.16
54588;BME280;40484;50.198;19.576;2023-05-09T10:48:46;102451.26;;;18.22;33.09
54588;BME280;40484;50.198;19.576;2023-05-09T10:53:49;102450.41;;;19.06;32.83
54588;BME280;40484;50.198;19.576;2023-05-09T10:58:51;102455.81;;;19.15;30.32
54588;BME280;40484;50.198;19.576;2023-05-09T11:03:55;102443.52;;;19.41;30.56
54588;BME280;40484;50.198;19.576;2023-05-09T11:09:00;102442.65;;;18.80;31.28
54588;BME280;40484;50.198;19.576;2023-05-09T11:14:00;102432.75;;;19.03;31.33
54588;BME280;40484;50.198;19.576;2023-05-09T11:19:02;102420.81;;;19.15;29.82
54588;BME280;40484;50.198;19.576;2023-05-09T11:24:17;102417.34;;;19.62;29.78
54588;BME280;40484;50.198;19.576;2023-05-09T11:29:54;102404.48;;;19.81;30.09
54588;BME280;40484;50.198;19.576;2023-05-09T11:34:48;102405.95;;;19.62;29.30
54588;BME280;40484;50.198;19.576;2023-05-09T11:39:57;102398.90;;;20.17;29.81
54588;BME280;40484;50.198;19.576;2023-05-09T11:44:59;102393.58;;;19.91;29.42
54588;BME280;40484;50.198;19.576;2023-05-09T11:50:00;102406.64;;;20.08;28.54
54588;BME280;40484;50.198;19.576;2023-05-09T11:55:02;102396.60;;;20.01;29.37
54588;BME280;40484;50.198;19.576;2023-05-09T12:00:04;102377.75;;;20.05;27.78
54588;BME280;40484;50.198;19.576;2023-05-09T12:05:10;102377.59;;;19.55;28.38
54588;BME280;40484;50.198;19.576;2023-05-09T12:10:18;102379.53;;;19.68;30.71
54588;BME280;40484;50.198;19.576;2023-05-09T12:15:18;102376.93;;;19.74;28.61
54588;BME280;40484;50.198;19.576;2023-05-09T12:20:21;102363.77;;;19.62;28.87
54588;BME280;40484;50.198;19.576;2023-05-09T12:25:23;102338.91;;;20.44;30.50
54588;BME280;40484;50.198;19.576;2023-05-09T12:30:24;102340.15;;;20.83;28.66
54588;BME280;40484;50.198;19.576;2023-05-09T12:35:26;102348.01;;;20.70;27.82
54588;BME280;40484;50.198;19.576;2023-05-09T12:40:27;102341.02;;;20.20;27.98
54588;BME280;40484;50.198;19.576;2023-05-09T12:45:32;102342.08;;;19.92;29.11
54588;BME280;40484;50.198;19.576;2023-05-09T12:50:34;102345.13;;;19.99;30.58
54588;BME280;40484;50.198;19.576;2023-05-09T12:56:11;102333.07;;;20.40;28.70
54588;BME280;40484;50.198;19.576;2023-05-09T13:01:14;102327.80;;;20.40;27.55
54588;BME280;40484;50.198;19.576;2023-05-09T13:06:16;102322.04;;;20.31;27.55
54588;BME280;40484;50.198;19.576;2023-05-09T13:11:17;102324.29;;;20.23;27.44
54588;BME280;40484;50.198;19.576;2023-05-09T13:16:20;102317.68;;;20.39;28.39
54588;BME280;40484;50.198;19.576;2023-05-09T13:21:22;102312.59;;;20.53;28.78
54588;BME280;40484;50.198;19.576;2023-05-09T13:26:24;102302.23;;;20.67;27.36
54588;BME280;40484;50.198;19.576;2023-05-09T13:31:27;102299.65;;;20.43;27.53
54588;BME280;40484;50.198;19.576;2023-05-09T13:36:28;102290.39;;;20.57;28.47
54588;BME280;40484;50.198;19.576;2023-05-09T13:41:31;102270.57;;;21.27;27.27
54588;BME280;40484;50.198;19.576;2023-05-09T13:46:33;102281.27;;;21.62;27.69
54588;BME280;40484;50.198;19.576;2023-05-09T13:51:35;102286.56;;;21.61;25.90
54588;BME280;40484;50.198;19.576;2023-05-09T13:56:37;102278.17;;;20.76;26.59
54588;BME280;40484;50.198;19.576;2023-05-09T14:01:39;102272.95;;;20.49;27.96
54588;BME280;40484;50.198;19.576;2023-05-09T14:06:40;102260.96;;;21.03;27.29
54588;BME280;40484;50.198;19.576;2023-05-09T14:11:44;102265.68;;;20.55;26.86
54588;BME280;40484;50.198;19.576;2023-05-09T14:16:45;102272.32;;;20.63;27.77
54588;BME280;40484;50.198;19.576;2023-05-09T14:21:47;102252.50;;;21.03;27.00
54588;BME280;40484;50.198;19.576;2023-05-09T14:26:48;102250.96;;;20.95;26.16
54588;BME280;40484;50.198;19.576;2023-05-09T14:32:16;102250.16;;;20.93;26.37
54588;BME280;40484;50.198;19.576;2023-05-09T14:37:17;102244.92;;;20.69;26.32
54588;BME280;40484;50.198;19.576;2023-05-09T14:42:19;102248.21;;;20.51;26.66
54588;BME280;40484;50.198;19.576;2023-05-09T14:47:21;102243.17;;;20.93;26.56
54588;BME280;40484;50.198;19.576;2023-05-09T14:52:22;102235.52;;;21.05;26.38
54588;BME280;40484;50.198;19.576;2023-05-09T14:57:24;102231.69;;;21.37;26.88
54588;BME280;40484;50.198;19.576;2023-05-09T15:02:25;102245.53;;;21.70;26.21
54588;BME280;40484;50.198;19.576;2023-05-09T15:07:27;102212.51;;;21.71;25.70
54588;BME280;40484;50.198;19.576;2023-05-09T15:12:29;102219.09;;;21.43;25.48
54588;BME280;40484;50.198;19.576;2023-05-09T15:17:30;102214.17;;;21.88;26.03
54588;BME280;40484;50.198;19.576;2023-05-09T15:22:32;102211.87;;;21.88;25.39
54588;BME280;40484;50.198;19.576;2023-05-09T15:27:34;102197.20;;;21.91;24.86
54588;BME280;40484;50.198;19.576;2023-05-09T15:32:37;102207.50;;;21.68;25.11
54588;BME280;40484;50.198;19.576;2023-05-09T15:37:39;102189.73;;;22.01;24.90
54588;BME280;40484;50.198;19.576;2023-05-09T15:42:41;102188.27;;;21.93;24.82
54588;BME280;40484;50.198;19.576;2023-05-09T15:47:43;102177.29;;;21.99;24.68
54588;BME280;40484;50.198;19.576;2023-05-09T15:52:44;102179.50;;;22.04;25.03
54588;BME280;40484;50.198;19.576;2023-05-09T15:57:46;102172.13;;;22.10;24.46
54588;BME280;40484;50.198;19.576;2023-05-09T16:02:48;102164.06;;;21.86;23.90
54588;BME280;40484;50.198;19.576;2023-05-09T16:07:50;102153.30;;;22.02;24.32
54588;BME280;40484;50.198;19.576;2023-05-09T16:12:53;102147.38;;;22.02;24.37
54588;BME280;40484;50.198;19.576;2023-05-09T16:18:20;102144.09;;;22.46;24.15
54588;BME280;40484;50.198;19.576;2023-05-09T16:23:22;102134.56;;;22.67;23.62
54588;BME280;40484;50.198;19.576;2023-05-09T16:28:24;102146.02;;;22.52;23.58
54588;BME280;40484;50.198;19.576;2023-05-09T16:33:27;102140.97;;;22.28;23.63
54588;BME280;40484;50.198;19.576;2023-05-09T16:38:29;102137.37;;;22.43;23.36
54588;BME280;40484;50.198;19.576;2023-05-09T16:43:30;102121.08;;;22.50;23.25
54588;BME280;40484;50.198;19.576;2023-05-09T16:48:32;102116.92;;;22.83;23.03
54588;BME280;40484;50.198;19.576;2023-05-09T16:53:33;102107.52;;;22.57;22.69
54588;BME280;40484;50.198;19.576;2023-05-09T16:58:36;102108.76;;;22.28;23.05
54588;BME280;40484;50.198;19.576;2023-05-09T17:03:37;102104.06;;;22.37;23.03
54588;BME280;40484;50.198;19.576;2023-05-09T17:08:39;102105.20;;;22.48;23.14
54588;BME280;40484;50.198;19.576;2023-05-09T17:13:41;102101.27;;;22.53;22.94
54588;BME280;40484;50.198;19.576;2023-05-09T17:18:47;102094.26;;;22.47;22.96
54588;BME280;40484;50.198;19.576;2023-05-09T17:23:48;102091.41;;;22.12;23.25
54588;BME280;40484;50.198;19.576;2023-05-09T17:28:49;102097.75;;;21.65;23.80
54588;BME280;40484;50.198;19.576;2023-05-09T17:33:51;102097.67;;;21.52;24.39
54588;BME280;40484;50.198;19.576;2023-05-09T17:38:53;102096.27;;;21.31;24.93
54588;BME280;40484;50.198;19.576;2023-05-09T17:43:54;102100.45;;;21.05;25.17
54588;BME280;40484;50.198;19.576;2023-05-09T17:48:59;102102.07;;;20.90;25.50
54588;BME280;40484;50.198;19.576;2023-05-09T17:54:00;102101.41;;;20.62;25.90
54588;BME280;40484;50.198;19.576;2023-05-09T17:59:28;102099.00;;;20.45;26.23
54588;BME280;40484;50.198;19.576;2023-05-09T18:04:29;102082.02;;;20.08;26.82
54588;BME280;40484;50.198;19.576;2023-05-09T18:09:33;102088.37;;;19.85;27.21
54588;BME280;40484;50.198;19.576;2023-05-09T18:14:34;102087.70;;;19.75;27.43
54588;BME280;40484;50.198;19.576;2023-05-09T18:19:36;102088.18;;;19.58;27.60
54588;BME280;40484;50.198;19.576;2023-05-09T18:24:39;102088.46;;;19.42;27.98
54588;BME280;40484;50.198;19.576;2023-05-09T18:29:41;102089.46;;;19.20;28.49
54588;BME280;40484;50.198;19.576;2023-05-09T18:34:43;102094.15;;;19.02;28.68
54588;BME280;40484;50.198;19.576;2023-05-09T18:39:46;102096.41;;;18.91;28.73
54588;BME280;40484;50.198;19.576;2023-05-09T18:44:48;102104.72;;;18.86;28.82
54588;BME280;40484;50.198;19.576;2023-05-09T18:49:50;102099.48;;;18.82;28.92
54588;BME280;40484;50.198;19.576;2023-05-09T18:54:51;102096.30;;;18.66;29.02
54588;BME280;40484;50.198;19.576;2023-05-09T18:59:53;102099.72;;;18.45;29.27
54588;BME280;40484;50.198;19.576;2023-05-09T19:04:55;102093.45;;;18.43;29.11
54588;BME280;40484;50.198;19.576;2023-05-09T19:09:57;102095.88;;;18.33;29.19
54588;BME280;40484;50.198;19.576;2023-05-09T19:14:58;102102.03;;;18.29;29.18
54588;BME280;40484;50.198;19.576;2023-05-09T19:20:00;102093.66;;;18.24;29.15
54588;BME280;40484;50.198;19.576;2023-05-09T19:25:02;102093.07;;;18.02;29.42
54588;BME280;40484;50.198;19.576;2023-05-09T19:30:04;102086.59;;;17.98;29.47
54588;BME280;40484;50.198;19.576;2023-05-09T19:35:07;102082.99;;;17.99;29.40
54588;BME280;40484;50.198;19.576;2023-05-09T19:40:36;102090.45;;;18.11;29.27
54588;BME280;40484;50.198;19.576;2023-05-09T19:45:37;102076.27;;;18.00;29.24
54588;BME280;40484;50.198;19.576;2023-05-09T19:50:40;102078.44;;;17.94;29.11
54588;BME280;40484;50.198;19.576;2023-05-09T19:55:41;102082.86;;;17.93;29.33
54588;BME280;40484;50.198;19.576;2023-05-09T20:00:44;102075.32;;;17.90;29.40
54588;BME280;40484;50.198;19.576;2023-05-09T20:05:46;102070.16;;;17.80;29.40
54588;BME280;40484;50.198;19.576;2023-05-09T20:10:48;102087.76;;;17.61;29.63
54588;BME280;40484;50.198;19.576;2023-05-09T20:15:49;102073.69;;;17.61;29.76
54588;BME280;40484;50.198;19.576;2023-05-09T20:20:51;102074.92;;;17.65;29.70
54588;BME280;40484;50.198;19.576;2023-05-09T20:25:54;102069.05;;;17.63;29.69
54588;BME280;40484;50.198;19.576;2023-05-09T20:30:56;102069.80;;;17.49;29.95
54588;BME280;40484;50.198;19.576;2023-05-09T20:35:57;102067.98;;;17.41;30.00
54588;BME280;40484;50.198;19.576;2023-05-09T20:40:59;102067.16;;;17.41;30.08
54588;BME280;40484;50.198;19.576;2023-05-09T20:46:00;102060.85;;;17.37;30.06
54588;BME280;40484;50.198;19.576;2023-05-09T20:51:02;102057.30;;;17.13;30.35
54588;BME280;40484;50.198;19.576;2023-05-09T20:56:03;102055.27;;;16.99;30.67
54588;BME280;40484;50.198;19.576;2023-05-09T21:01:05;102057.20;;;16.96;30.63
54588;BME280;40484;50.198;19.576;2023-05-09T21:06:06;102051.95;;;16.97;30.62
54588;BME280;40484;50.198;19.576;2023-05-09T21:11:08;102059.14;;;16.91;30.73
54588;BME280;40484;50.198;19.576;2023-05-09T21:16:09;102052.20;;;16.89;30.64
54588;BME280;40484;50.198;19.576;2023-05-09T21:21:11;102049.04;;;16.92;30.66
54588;BME280;40484;50.198;19.576;2023-05-09T21:26:40;102046.66;;;16.97;30.49
54588;BME280;40484;50.198;19.576;2023-05-09T21:31:41;102045.26;;;16.90;30.60
54588;BME280;40484;50.198;19.576;2023-05-09T21:36:42;102034.59;;;16.84;30.72
54588;BME280;40484;50.198;19.576;2023-05-09T21:41:44;102039.02;;;16.82;30.57
54588;BME280;40484;50.198;19.576;2023-05-09T21:46:45;102037.99;;;16.75;30.76
54588;BME280;40484;50.198;19.576;2023-05-09T21:51:47;102042.20;;;16.71;30.67
54588;BME280;40484;50.198;19.576;2023-05-09T21:56:48;102039.72;;;16.69;30.75
54588;BME280;40484;50.198;19.576;2023-05-09T22:01:50;102043.29;;;16.67;31.02
54588;BME280;40484;50.198;19.576;2023-05-09T22:06:51;102036.87;;;16.49;31.13
54588;BME280;40484;50.198;19.576;2023-05-09T22:11:53;102039.26;;;16.34;31.43
54588;BME280;40484;50.198;19.576;2023-05-09T22:16:54;102039.85;;;16.41;31.42
54588;BME280;40484;50.198;19.576;2023-05-09T22:21:56;102033.33;;;16.41;31.60
54588;BME280;40484;50.198;19.576;2023-05-09T22:26:57;102029.18;;;16.37;31.54
54588;BME280;40484;50.198;19.576;2023-05-09T22:31:59;102021.84;;;16.33;31.63
54588;BME280;40484;50.198;19.576;2023-05-09T22:37:01;102021.89;;;16.24;31.81
